sensor_id;sensor_type;location;lat;lon;timestamp;P1;durP1;ratioP1;P2;durP2;ratioP2
56997;SDS011;42890;44.244;22.530;2024-03-17T00:02:03;131.52;;;78.68;;
56997;SDS011;42890;44.244;22.530;2024-03-17T00:04:30;50.47;;;45.28;;
56997;SDS011;42890;44.244;22.530;2024-03-17T00:06:57;44.40;;;39.97;;
56997;SDS011;42890;44.244;22.530;2024-03-17T00:09:23;38.30;;;34.58;;
56997;SDS011;42890;44.244;22.530;2024-03-17T00:11:50;44.50;;;39.13;;
56997;SDS011;42890;44.244;22.530;2024-03-17T00:14:16;45.33;;;40.80;;
56997;SDS011;42890;44.244;22.530;2024-03-17T00:16:43;42.88;;;38.67;;
56997;SDS011;42890;44.244;22.530;2024-03-17T00:19:09;40.38;;;36.58;;
56997;SDS011;42890;44.244;22.530;2024-03-17T00:21:36;41.78;;;37.67;;
56997;SDS011;42890;44.244;22.530;2024-03-17T00:24:02;41.53;;;37.63;;
56997;SDS011;42890;44.244;22.530;2024-03-17T00:26:28;41.45;;;37.28;;
56997;SDS011;42890;44.244;22.530;2024-03-17T00:28:55;44.58;;;40.42;;
56997;SDS011;42890;44.244;22.530;2024-03-17T00:31:21;79.20;;;70.70;;
56997;SDS011;42890;44.244;22.530;2024-03-17T00:33:51;169.57;;;84.30;;
56997;SDS011;42890;44.244;22.530;2024-03-17T00:36:17;177.43;;;86.47;;
56997;SDS011;42890;44.244;22.530;2024-03-17T00:38:43;159.93;;;82.97;;
56997;SDS011;42890;44.244;22.530;2024-03-17T00:41:09;131.07;;;78.85;;
56997;SDS011;42890;44.244;22.530;2024-03-17T00:43:35;114.80;;;73.47;;
56997;SDS011;42890;44.244;22.530;2024-03-17T00:46:02;54.83;;;48.85;;
56997;SDS011;42890;44.244;22.530;2024-03-17T00:48:28;56.55;;;47.15;;
56997;SDS011;42890;44.244;22.530;2024-03-17T00:50:55;46.03;;;41.60;;
56997;SDS011;42890;44.244;22.530;2024-03-17T00:53:21;44.60;;;40.35;;
56997;SDS011;42890;44.244;22.530;2024-03-17T00:55:54;51.03;;;46.03;;
56997;SDS011;42890;44.244;22.530;2024-03-17T00:58:25;50.33;;;45.53;;
56997;SDS011;42890;44.244;22.530;2024-03-17T01:00:51;43.53;;;39.25;;
56997;SDS011;42890;44.244;22.530;2024-03-17T01:03:17;37.83;;;34.33;;
56997;SDS011;42890;44.244;22.530;2024-03-17T01:05:44;38.08;;;34.33;;
56997;SDS011;42890;44.244;22.530;2024-03-17T01:08:12;42.63;;;38.45;;
56997;SDS011;42890;44.244;22.530;2024-03-17T01:10:39;44.90;;;40.30;;
56997;SDS011;42890;44.244;22.530;2024-03-17T01:13:06;49.38;;;41.85;;
56997;SDS011;42890;44.244;22.530;2024-03-17T01:15:32;51.58;;;45.85;;
56997;SDS011;42890;44.244;22.530;2024-03-17T01:17:59;55.33;;;47.25;;
56997;SDS011;42890;44.244;22.530;2024-03-17T01:20:25;56.13;;;44.55;;
56997;SDS011;42890;44.244;22.530;2024-03-17T01:22:51;49.28;;;44.03;;
56997;SDS011;42890;44.244;22.530;2024-03-17T01:25:17;43.85;;;39.17;;
56997;SDS011;42890;44.244;22.530;2024-03-17T01:27:44;40.67;;;36.25;;
56997;SDS011;42890;44.244;22.530;2024-03-17T01:30:11;38.90;;;34.80;;
56997;SDS011;42890;44.244;22.530;2024-03-17T01:32:37;35.20;;;31.58;;
56997;SDS011;42890;44.244;22.530;2024-03-17T01:35:04;30.15;;;27.15;;
56997;SDS011;42890;44.244;22.530;2024-03-17T01:37:33;30.73;;;27.83;;
56997;SDS011;42890;44.244;22.530;2024-03-17T01:39:59;30.23;;;27.52;;
56997;SDS011;42890;44.244;22.530;2024-03-17T01:42:25;27.20;;;24.60;;
56997;SDS011;42890;44.244;22.530;2024-03-17T01:44:53;27.52;;;23.33;;
56997;SDS011;42890;44.244;22.530;2024-03-17T01:47:19;25.95;;;23.58;;
56997;SDS011;42890;44.244;22.530;2024-03-17T01:49:48;39.25;;;34.95;;
56997;SDS011;42890;44.244;22.530;2024-03-17T01:52:15;35.65;;;31.77;;
56997;SDS011;42890;44.244;22.530;2024-03-17T01:54:42;34.08;;;30.40;;
56997;SDS011;42890;44.244;22.530;2024-03-17T01:57:09;35.33;;;31.83;;
56997;SDS011;42890;44.244;22.530;2024-03-17T01:59:36;46.28;;;41.40;;
56997;SDS011;42890;44.244;22.530;2024-03-17T02:02:02;52.22;;;46.92;;
56997;SDS011;42890;44.244;22.530;2024-03-17T02:04:29;31.73;;;28.52;;
56997;SDS011;42890;44.244;22.530;2024-03-17T02:06:55;28.48;;;25.50;;
56997;SDS011;42890;44.244;22.530;2024-03-17T02:09:21;38.28;;;34.22;;
56997;SDS011;42890;44.244;22.530;2024-03-17T02:11:47;36.92;;;33.20;;
56997;SDS011;42890;44.244;22.530;2024-03-17T02:14:14;29.67;;;26.98;;
56997;SDS011;42890;44.244;22.530;2024-03-17T02:16:42;28.52;;;25.70;;
56997;SDS011;42890;44.244;22.530;2024-03-17T02:19:08;27.02;;;24.50;;
56997;SDS011;42890;44.244;22.530;2024-03-17T02:21:35;29.20;;;26.63;;
56997;SDS011;42890;44.244;22.530;2024-03-17T02:24:03;31.77;;;28.88;;
56997;SDS011;42890;44.244;22.530;2024-03-17T02:26:29;35.88;;;32.38;;
56997;SDS011;42890;44.244;22.530;2024-03-17T02:28:55;40.38;;;36.35;;
56997;SDS011;42890;44.244;22.530;2024-03-17T02:31:21;60.13;;;53.97;;
56997;SDS011;42890;44.244;22.530;2024-03-17T02:33:47;95.68;;;78.63;;
56997;SDS011;42890;44.244;22.530;2024-03-17T02:36:13;49.40;;;44.40;;
56997;SDS011;42890;44.244;22.530;2024-03-17T02:38:42;41.75;;;37.55;;
56997;SDS011;42890;44.244;22.530;2024-03-17T02:41:27;35.08;;;31.48;;
56997;SDS011;42890;44.244;22.530;2024-03-17T02:43:53;31.90;;;28.90;;
56997;SDS011;42890;44.244;22.530;2024-03-17T02:46:20;33.20;;;30.05;;
56997;SDS011;42890;44.244;22.530;2024-03-17T02:48:49;35.40;;;32.05;;
56997;SDS011;42890;44.244;22.530;2024-03-17T02:51:17;41.22;;;37.03;;
56997;SDS011;42890;44.244;22.530;2024-03-17T02:53:44;52.53;;;47.38;;
56997;SDS011;42890;44.244;22.530;2024-03-17T02:56:11;50.65;;;45.67;;
56997;SDS011;42890;44.244;22.530;2024-03-17T02:58:38;69.75;;;62.03;;
56997;SDS011;42890;44.244;22.530;2024-03-17T03:01:04;68.88;;;61.65;;
56997;SDS011;42890;44.244;22.530;2024-03-17T03:03:31;70.65;;;60.53;;
56997;SDS011;42890;44.244;22.530;2024-03-17T03:05:57;62.60;;;55.83;;
56997;SDS011;42890;44.244;22.530;2024-03-17T03:08:26;97.25;;;62.38;;
56997;SDS011;42890;44.244;22.530;2024-03-17T03:10:52;145.40;;;72.97;;
56997;SDS011;42890;44.244;22.530;2024-03-17T03:13:18;119.20;;;69.22;;
56997;SDS011;42890;44.244;22.530;2024-03-17T03:15:46;97.30;;;68.65;;
56997;SDS011;42890;44.244;22.530;2024-03-17T03:18:13;62.33;;;50.90;;
56997;SDS011;42890;44.244;22.530;2024-03-17T03:20:39;81.57;;;64.88;;
56997;SDS011;42890;44.244;22.530;2024-03-17T03:23:05;81.90;;;61.92;;
56997;SDS011;42890;44.244;22.530;2024-03-17T03:25:31;46.33;;;41.45;;
56997;SDS011;42890;44.244;22.530;2024-03-17T03:27:57;41.53;;;35.83;;
56997;SDS011;42890;44.244;22.530;2024-03-17T03:30:24;42.33;;;38.42;;
56997;SDS011;42890;44.244;22.530;2024-03-17T03:32:50;52.38;;;47.13;;
56997;SDS011;42890;44.244;22.530;2024-03-17T03:35:16;70.10;;;58.25;;
56997;SDS011;42890;44.244;22.530;2024-03-17T03:37:42;115.70;;;76.20;;
56997;SDS011;42890;44.244;22.530;2024-03-17T03:40:08;47.75;;;42.63;;
56997;SDS011;42890;44.244;22.530;2024-03-17T03:42:44;37.95;;;34.15;;
56997;SDS011;42890;44.244;22.530;2024-03-17T03:45:11;44.28;;;38.95;;
56997;SDS011;42890;44.244;22.530;2024-03-17T03:47:38;57.03;;;48.75;;
56997;SDS011;42890;44.244;22.530;2024-03-17T03:50:06;67.85;;;55.35;;
56997;SDS011;42890;44.244;22.530;2024-03-17T03:52:34;52.20;;;44.72;;
56997;SDS011;42890;44.244;22.530;2024-03-17T03:55:00;40.63;;;36.22;;
56997;SDS011;42890;44.244;22.530;2024-03-17T03:57:27;43.10;;;38.60;;
56997;SDS011;42890;44.244;22.530;2024-03-17T03:59:54;58.10;;;52.45;;
56997;SDS011;42890;44.244;22.530;2024-03-17T04:02:21;72.80;;;64.57;;
56997;SDS011;42890;44.244;22.530;2024-03-17T04:04:48;100.97;;;76.63;;
56997;SDS011;42890;44.244;22.530;2024-03-17T04:07:14;131.77;;;89.40;;
56997;SDS011;42890;44.244;22.530;2024-03-17T04:09:40;185.35;;;109.25;;
56997;SDS011;42890;44.244;22.530;2024-03-17T04:12:06;183.30;;;115.18;;
56997;SDS011;42890;44.244;22.530;2024-03-17T04:14:32;189.27;;;119.53;;
56997;SDS011;42890;44.244;22.530;2024-03-17T04:16:58;175.38;;;112.55;;
56997;SDS011;42890;44.244;22.530;2024-03-17T04:19:24;178.00;;;113.63;;
56997;SDS011;42890;44.244;22.530;2024-03-17T04:21:51;174.38;;;107.75;;
56997;SDS011;42890;44.244;22.530;2024-03-17T04:24:17;161.70;;;103.38;;
56997;SDS011;42890;44.244;22.530;2024-03-17T04:26:43;135.50;;;88.65;;
56997;SDS011;42890;44.244;22.530;2024-03-17T04:29:09;121.03;;;86.03;;
56997;SDS011;42890;44.244;22.530;2024-03-17T04:31:35;189.27;;;109.15;;
56997;SDS011;42890;44.244;22.530;2024-03-17T04:34:03;145.13;;;89.95;;
56997;SDS011;42890;44.244;22.530;2024-03-17T04:36:29;138.63;;;84.53;;
56997;SDS011;42890;44.244;22.530;2024-03-17T04:38:55;176.30;;;97.90;;
56997;SDS011;42890;44.244;22.530;2024-03-17T04:41:21;200.25;;;104.70;;
56997;SDS011;42890;44.244;22.530;2024-03-17T04:43:47;202.90;;;106.13;;
56997;SDS011;42890;44.244;22.530;2024-03-17T04:46:13;130.15;;;85.93;;
56997;SDS011;42890;44.244;22.530;2024-03-17T04:48:40;99.72;;;74.22;;
56997;SDS011;42890;44.244;22.530;2024-03-17T04:51:07;98.38;;;76.90;;
56997;SDS011;42890;44.244;22.530;2024-03-17T04:53:33;99.70;;;74.05;;
56997;SDS011;42890;44.244;22.530;2024-03-17T04:56:02;113.97;;;82.43;;
56997;SDS011;42890;44.244;22.530;2024-03-17T04:58:30;99.18;;;82.63;;
56997;SDS011;42890;44.244;22.530;2024-03-17T05:00:56;106.78;;;81.32;;
56997;SDS011;42890;44.244;22.530;2024-03-17T05:03:22;120.18;;;86.68;;
56997;SDS011;42890;44.244;22.530;2024-03-17T05:05:48;128.32;;;88.82;;
56997;SDS011;42890;44.244;22.530;2024-03-17T05:08:14;116.47;;;87.15;;
56997;SDS011;42890;44.244;22.530;2024-03-17T05:10:40;112.32;;;82.18;;
56997;SDS011;42890;44.244;22.530;2024-03-17T05:13:06;92.28;;;76.50;;
56997;SDS011;42890;44.244;22.530;2024-03-17T05:15:33;88.90;;;77.15;;
56997;SDS011;42890;44.244;22.530;2024-03-17T05:18:02;105.93;;;75.32;;
56997;SDS011;42890;44.244;22.530;2024-03-17T05:20:28;102.72;;;79.00;;
56997;SDS011;42890;44.244;22.530;2024-03-17T05:22:55;106.63;;;82.60;;
56997;SDS011;42890;44.244;22.530;2024-03-17T05:25:21;113.30;;;86.80;;
56997;SDS011;42890;44.244;22.530;2024-03-17T05:27:47;115.85;;;86.78;;
56997;SDS011;42890;44.244;22.530;2024-03-17T05:30:13;121.90;;;88.63;;
56997;SDS011;42890;44.244;22.530;2024-03-17T05:32:39;130.43;;;93.50;;
56997;SDS011;42890;44.244;22.530;2024-03-17T05:35:05;125.88;;;86.53;;
56997;SDS011;42890;44.244;22.530;2024-03-17T05:37:32;120.50;;;87.20;;
56997;SDS011;42890;44.244;22.530;2024-03-17T05:39:58;142.40;;;94.80;;
56997;SDS011;42890;44.244;22.530;2024-03-17T05:42:24;163.35;;;103.30;;
56997;SDS011;42890;44.244;22.530;2024-03-17T05:44:51;184.95;;;116.32;;
56997;SDS011;42890;44.244;22.530;2024-03-17T05:47:18;155.43;;;99.78;;
56997;SDS011;42890;44.244;22.530;2024-03-17T05:49:44;153.48;;;98.57;;
56997;SDS011;42890;44.244;22.530;2024-03-17T05:52:11;124.53;;;87.15;;
56997;SDS011;42890;44.244;22.530;2024-03-17T05:54:37;131.90;;;90.05;;
56997;SDS011;42890;44.244;22.530;2024-03-17T05:57:04;142.77;;;93.40;;
56997;SDS011;42890;44.244;22.530;2024-03-17T05:59:30;164.10;;;101.63;;
56997;SDS011;42890;44.244;22.530;2024-03-17T06:01:56;179.43;;;108.68;;
56997;SDS011;42890;44.244;22.530;2024-03-17T06:04:22;211.82;;;124.85;;
56997;SDS011;42890;44.244;22.530;2024-03-17T06:06:49;170.25;;;103.28;;
56997;SDS011;42890;44.244;22.530;2024-03-17T06:09:15;150.48;;;99.57;;
56997;SDS011;42890;44.244;22.530;2024-03-17T06:11:45;150.68;;;93.13;;
56997;SDS011;42890;44.244;22.530;2024-03-17T06:14:11;125.70;;;89.15;;
56997;SDS011;42890;44.244;22.530;2024-03-17T06:16:38;88.65;;;74.50;;
56997;SDS011;42890;44.244;22.530;2024-03-17T06:19:04;190.05;;;109.60;;
56997;SDS011;42890;44.244;22.530;2024-03-17T06:21:32;109.63;;;79.65;;
56997;SDS011;42890;44.244;22.530;2024-03-17T06:23:58;79.07;;;69.47;;
56997;SDS011;42890;44.244;22.530;2024-03-17T06:26:24;122.28;;;83.00;;
56997;SDS011;42890;44.244;22.530;2024-03-17T06:28:51;99.72;;;78.32;;
56997;SDS011;42890;44.244;22.530;2024-03-17T06:31:18;107.43;;;83.07;;
56997;SDS011;42890;44.244;22.530;2024-03-17T06:33:44;71.68;;;64.35;;
56997;SDS011;42890;44.244;22.530;2024-03-17T06:36:10;65.85;;;58.50;;
56997;SDS011;42890;44.244;22.530;2024-03-17T06:38:36;59.83;;;53.63;;
56997;SDS011;42890;44.244;22.530;2024-03-17T06:41:02;55.40;;;49.78;;
56997;SDS011;42890;44.244;22.530;2024-03-17T06:43:29;60.15;;;53.67;;
56997;SDS011;42890;44.244;22.530;2024-03-17T06:45:56;74.40;;;66.43;;
56997;SDS011;42890;44.244;22.530;2024-03-17T06:48:23;73.07;;;65.45;;
56997;SDS011;42890;44.244;22.530;2024-03-17T06:50:49;60.55;;;54.33;;
56997;SDS011;42890;44.244;22.530;2024-03-17T06:53:17;57.30;;;51.17;;
56997;SDS011;42890;44.244;22.530;2024-03-17T06:55:44;59.75;;;53.70;;
56997;SDS011;42890;44.244;22.530;2024-03-17T06:58:11;54.60;;;49.20;;
56997;SDS011;42890;44.244;22.530;2024-03-17T07:00:37;52.38;;;47.15;;
56997;SDS011;42890;44.244;22.530;2024-03-17T07:03:03;56.42;;;50.65;;
56997;SDS011;42890;44.244;22.530;2024-03-17T07:05:29;52.15;;;47.05;;
56997;SDS011;42890;44.244;22.530;2024-03-17T07:07:57;52.35;;;47.25;;
56997;SDS011;42890;44.244;22.530;2024-03-17T07:10:23;45.08;;;40.70;;
56997;SDS011;42890;44.244;22.530;2024-03-17T07:12:51;50.33;;;45.03;;
56997;SDS011;42890;44.244;22.530;2024-03-17T07:15:17;45.67;;;41.25;;
56997;SDS011;42890;44.244;22.530;2024-03-17T07:17:44;46.80;;;42.38;;
56997;SDS011;42890;44.244;22.530;2024-03-17T07:20:10;43.78;;;39.58;;
56997;SDS011;42890;44.244;22.530;2024-03-17T07:22:38;43.42;;;39.22;;
56997;SDS011;42890;44.244;22.530;2024-03-17T07:25:04;43.20;;;38.85;;
56997;SDS011;42890;44.244;22.530;2024-03-17T07:27:30;44.42;;;39.83;;
56997;SDS011;42890;44.244;22.530;2024-03-17T07:29:57;43.92;;;39.58;;
56997;SDS011;42890;44.244;22.530;2024-03-17T07:32:23;40.17;;;36.25;;
56997;SDS011;42890;44.244;22.530;2024-03-17T07:34:49;40.90;;;36.90;;
56997;SDS011;42890;44.244;22.530;2024-03-17T07:37:16;37.47;;;33.65;;
56997;SDS011;42890;44.244;22.530;2024-03-17T07:39:42;60.47;;;50.58;;
56997;SDS011;42890;44.244;22.530;2024-03-17T07:42:08;37.35;;;33.70;;
56997;SDS011;42890;44.244;22.530;2024-03-17T07:44:35;34.58;;;31.48;;
56997;SDS011;42890;44.244;22.530;2024-03-17T07:47:01;33.80;;;30.60;;
56997;SDS011;42890;44.244;22.530;2024-03-17T07:49:29;33.95;;;30.95;;
56997;SDS011;42890;44.244;22.530;2024-03-17T07:51:55;33.60;;;30.42;;
56997;SDS011;42890;44.244;22.530;2024-03-17T07:54:23;37.55;;;33.50;;
56997;SDS011;42890;44.244;22.530;2024-03-17T07:56:49;41.63;;;37.35;;
56997;SDS011;42890;44.244;22.530;2024-03-17T07:59:15;49.72;;;44.20;;
56997;SDS011;42890;44.244;22.530;2024-03-17T08:01:43;54.15;;;47.38;;
56997;SDS011;42890;44.244;22.530;2024-03-17T08:04:09;49.85;;;44.45;;
56997;SDS011;42890;44.244;22.530;2024-03-17T08:06:37;47.10;;;42.67;;
56997;SDS011;42890;44.244;22.530;2024-03-17T08:09:03;45.92;;;41.53;;
56997;SDS011;42890;44.244;22.530;2024-03-17T08:11:29;48.42;;;43.58;;
56997;SDS011;42890;44.244;22.530;2024-03-17T08:13:55;54.90;;;49.63;;
56997;SDS011;42890;44.244;22.530;2024-03-17T08:16:22;69.43;;;61.60;;
56997;SDS011;42890;44.244;22.530;2024-03-17T08:18:48;72.70;;;65.32;;
56997;SDS011;42890;44.244;22.530;2024-03-17T08:21:14;76.50;;;65.97;;
56997;SDS011;42890;44.244;22.530;2024-03-17T08:23:40;69.95;;;62.58;;
56997;SDS011;42890;44.244;22.530;2024-03-17T08:26:12;71.25;;;61.25;;
56997;SDS011;42890;44.244;22.530;2024-03-17T08:28:38;172.85;;;102.03;;
56997;SDS011;42890;44.244;22.530;2024-03-17T08:31:04;159.63;;;108.05;;
56997;SDS011;42890;44.244;22.530;2024-03-17T08:33:31;78.68;;;70.63;;
56997;SDS011;42890;44.244;22.530;2024-03-17T08:36:05;87.82;;;78.28;;
56997;SDS011;42890;44.244;22.530;2024-03-17T08:38:35;77.28;;;69.10;;
56997;SDS011;42890;44.244;22.530;2024-03-17T08:41:06;77.65;;;69.80;;
56997;SDS011;42890;44.244;22.530;2024-03-17T08:43:32;73.25;;;65.72;;
56997;SDS011;42890;44.244;22.530;2024-03-17T08:45:59;71.97;;;64.85;;
56997;SDS011;42890;44.244;22.530;2024-03-17T08:48:27;54.42;;;49.42;;
56997;SDS011;42890;44.244;22.530;2024-03-17T08:50:56;65.60;;;58.67;;
56997;SDS011;42890;44.244;22.530;2024-03-17T08:53:23;60.67;;;54.83;;
56997;SDS011;42890;44.244;22.530;2024-03-17T08:55:49;49.00;;;44.08;;
56997;SDS011;42890;44.244;22.530;2024-03-17T08:58:16;42.22;;;38.22;;
56997;SDS011;42890;44.244;22.530;2024-03-17T09:00:42;46.75;;;42.40;;
56997;SDS011;42890;44.244;22.530;2024-03-17T09:03:09;52.13;;;47.00;;
56997;SDS011;42890;44.244;22.530;2024-03-17T09:05:36;51.47;;;46.50;;
56997;SDS011;42890;44.244;22.530;2024-03-17T09:08:02;50.63;;;45.88;;
56997;SDS011;42890;44.244;22.530;2024-03-17T09:10:29;54.33;;;49.05;;
56997;SDS011;42890;44.244;22.530;2024-03-17T09:12:55;54.83;;;49.83;;
56997;SDS011;42890;44.244;22.530;2024-03-17T09:15:22;54.47;;;49.42;;
56997;SDS011;42890;44.244;22.530;2024-03-17T09:17:48;47.17;;;42.85;;
56997;SDS011;42890;44.244;22.530;2024-03-17T09:20:14;43.85;;;39.58;;
56997;SDS011;42890;44.244;22.530;2024-03-17T09:22:42;44.88;;;40.67;;
56997;SDS011;42890;44.244;22.530;2024-03-17T09:25:08;47.47;;;42.75;;
56997;SDS011;42890;44.244;22.530;2024-03-17T09:27:35;45.15;;;40.30;;
56997;SDS011;42890;44.244;22.530;2024-03-17T09:30:04;40.25;;;36.30;;
56997;SDS011;42890;44.244;22.530;2024-03-17T09:32:34;41.50;;;37.47;;
56997;SDS011;42890;44.244;22.530;2024-03-17T09:35:00;34.83;;;31.23;;
56997;SDS011;42890;44.244;22.530;2024-03-17T09:37:26;37.58;;;34.03;;
56997;SDS011;42890;44.244;22.530;2024-03-17T09:39:52;34.95;;;31.85;;
56997;SDS011;42890;44.244;22.530;2024-03-17T09:42:22;65.38;;;44.90;;
56997;SDS011;42890;44.244;22.530;2024-03-17T09:44:49;55.40;;;42.35;;
56997;SDS011;42890;44.244;22.530;2024-03-17T09:47:18;28.63;;;25.15;;
56997;SDS011;42890;44.244;22.530;2024-03-17T09:49:48;21.15;;;18.98;;
56997;SDS011;42890;44.244;22.530;2024-03-17T09:52:20;20.17;;;18.38;;
56997;SDS011;42890;44.244;22.530;2024-03-17T09:54:49;19.58;;;17.70;;
56997;SDS011;42890;44.244;22.530;2024-03-17T09:57:16;19.45;;;17.75;;
56997;SDS011;42890;44.244;22.530;2024-03-17T09:59:42;20.17;;;18.27;;
56997;SDS011;42890;44.244;22.530;2024-03-17T10:02:13;39.70;;;31.38;;
56997;SDS011;42890;44.244;22.530;2024-03-17T10:04:42;19.13;;;17.33;;
56997;SDS011;42890;44.244;22.530;2024-03-17T10:07:08;18.95;;;17.25;;
56997;SDS011;42890;44.244;22.530;2024-03-17T10:09:34;22.23;;;19.88;;
56997;SDS011;42890;44.244;22.530;2024-03-17T10:12:01;20.17;;;18.27;;
56997;SDS011;42890;44.244;22.530;2024-03-17T10:14:27;19.10;;;17.25;;
56997;SDS011;42890;44.244;22.530;2024-03-17T10:16:53;25.40;;;22.70;;
56997;SDS011;42890;44.244;22.530;2024-03-17T10:19:23;44.83;;;32.53;;
56997;SDS011;42890;44.244;22.530;2024-03-17T10:21:50;21.98;;;19.73;;
56997;SDS011;42890;44.244;22.530;2024-03-17T10:24:24;55.10;;;39.20;;
56997;SDS011;42890;44.244;22.530;2024-03-17T10:26:52;34.33;;;28.63;;
56997;SDS011;42890;44.244;22.530;2024-03-17T10:29:25;25.67;;;23.38;;
56997;SDS011;42890;44.244;22.530;2024-03-17T10:31:55;26.38;;;23.85;;
56997;SDS011;42890;44.244;22.530;2024-03-17T10:34:22;32.58;;;29.15;;
56997;SDS011;42890;44.244;22.530;2024-03-17T10:39:42;48.47;;;34.97;;
56997;SDS011;42890;44.244;22.530;2024-03-17T10:42:09;68.95;;;46.45;;
56997;SDS011;42890;44.244;22.530;2024-03-17T10:44:36;22.48;;;20.45;;
56997;SDS011;42890;44.244;22.530;2024-03-17T10:47:02;27.38;;;24.50;;
56997;SDS011;42890;44.244;22.530;2024-03-17T10:49:35;23.08;;;20.77;;
56997;SDS011;42890;44.244;22.530;2024-03-17T10:52:02;33.78;;;29.77;;
56997;SDS011;42890;44.244;22.530;2024-03-17T10:54:29;19.10;;;17.13;;
56997;SDS011;42890;44.244;22.530;2024-03-17T10:57:04;18.15;;;16.45;;
56997;SDS011;42890;44.244;22.530;2024-03-17T10:59:44;18.88;;;16.95;;
56997;SDS011;42890;44.244;22.530;2024-03-17T11:04:44;19.83;;;17.75;;
56997;SDS011;42890;44.244;22.530;2024-03-17T11:07:15;18.83;;;17.02;;
56997;SDS011;42890;44.244;22.530;2024-03-17T11:09:42;15.07;;;13.80;;
56997;SDS011;42890;44.244;22.530;2024-03-17T11:17:39;49.33;;;30.50;;
56997;SDS011;42890;44.244;22.530;2024-03-17T11:20:13;70.75;;;40.92;;
56997;SDS011;42890;44.244;22.530;2024-03-17T11:22:43;20.42;;;17.65;;
56997;SDS011;42890;44.244;22.530;2024-03-17T11:28:00;34.30;;;26.38;;
56997;SDS011;42890;44.244;22.530;2024-03-17T11:36:29;72.72;;;46.65;;
56997;SDS011;42890;44.244;22.530;2024-03-17T11:38:53;40.08;;;32.72;;
56997;SDS011;42890;44.244;22.530;2024-03-17T11:46:50;24.57;;;22.37;;
56997;SDS011;42890;44.244;22.530;2024-03-17T11:49:19;28.10;;;25.40;;
56997;SDS011;42890;44.244;22.530;2024-03-17T11:51:45;26.05;;;23.75;;
56997;SDS011;42890;44.244;22.530;2024-03-17T11:54:17;25.45;;;23.30;;
56997;SDS011;42890;44.244;22.530;2024-03-17T11:56:44;26.73;;;24.50;;
56997;SDS011;42890;44.244;22.530;2024-03-17T11:59:11;26.42;;;24.00;;
56997;SDS011;42890;44.244;22.530;2024-03-17T12:01:37;33.22;;;30.40;;
56997;SDS011;42890;44.244;22.530;2024-03-17T12:04:07;26.70;;;24.48;;
56997;SDS011;42890;44.244;22.530;2024-03-17T12:06:33;29.95;;;27.45;;
56997;SDS011;42890;44.244;22.530;2024-03-17T12:09:08;30.10;;;27.60;;
56997;SDS011;42890;44.244;22.530;2024-03-17T12:11:39;31.52;;;29.02;;
56997;SDS011;42890;44.244;22.530;2024-03-17T12:16:53;31.33;;;28.55;;
56997;SDS011;42890;44.244;22.530;2024-03-17T12:19:20;29.25;;;26.65;;
56997;SDS011;42890;44.244;22.530;2024-03-17T12:21:49;30.85;;;28.05;;
56997;SDS011;42890;44.244;22.530;2024-03-17T12:24:25;30.23;;;27.40;;
56997;SDS011;42890;44.244;22.530;2024-03-17T12:26:52;31.60;;;28.70;;
56997;SDS011;42890;44.244;22.530;2024-03-17T12:31:55;38.10;;;34.70;;
56997;SDS011;42890;44.244;22.530;2024-03-17T12:34:21;27.67;;;25.15;;
56997;SDS011;42890;44.244;22.530;2024-03-17T12:36:48;44.70;;;40.38;;
56997;SDS011;42890;44.244;22.530;2024-03-17T12:39:27;30.92;;;28.08;;
56997;SDS011;42890;44.244;22.530;2024-03-17T12:44:33;22.15;;;20.25;;
56997;SDS011;42890;44.244;22.530;2024-03-17T12:47:00;21.48;;;19.48;;
56997;SDS011;42890;44.244;22.530;2024-03-17T12:49:27;19.55;;;17.95;;
56997;SDS011;42890;44.244;22.530;2024-03-17T12:51:53;19.10;;;17.45;;
56997;SDS011;42890;44.244;22.530;2024-03-17T12:54:21;19.98;;;18.30;;
56997;SDS011;42890;44.244;22.530;2024-03-17T12:56:48;17.58;;;16.08;;
56997;SDS011;42890;44.244;22.530;2024-03-17T12:59:36;16.55;;;15.23;;
56997;SDS011;42890;44.244;22.530;2024-03-17T13:02:21;13.38;;;12.25;;
56997;SDS011;42890;44.244;22.530;2024-03-17T13:05:07;13.32;;;12.23;;
56997;SDS011;42890;44.244;22.530;2024-03-17T13:07:34;10.57;;;9.65;;
56997;SDS011;42890;44.244;22.530;2024-03-17T13:10:01;13.93;;;12.73;;
56997;SDS011;42890;44.244;22.530;2024-03-17T13:12:28;10.50;;;9.70;;
56997;SDS011;42890;44.244;22.530;2024-03-17T13:14:54;9.43;;;8.57;;
56997;SDS011;42890;44.244;22.530;2024-03-17T13:17:20;32.30;;;29.80;;
56997;SDS011;42890;44.244;22.530;2024-03-17T13:19:47;8.77;;;8.07;;
56997;SDS011;42890;44.244;22.530;2024-03-17T13:22:14;8.18;;;7.38;;
56997;SDS011;42890;44.244;22.530;2024-03-17T13:24:40;7.43;;;6.82;;
56997;SDS011;42890;44.244;22.530;2024-03-17T13:27:06;8.48;;;7.68;;
56997;SDS011;42890;44.244;22.530;2024-03-17T13:29:36;7.72;;;7.13;;
56997;SDS011;42890;44.244;22.530;2024-03-17T13:32:02;7.78;;;6.97;;
56997;SDS011;42890;44.244;22.530;2024-03-17T13:34:29;13.68;;;8.43;;
56997;SDS011;42890;44.244;22.530;2024-03-17T13:36:55;7.35;;;6.75;;
56997;SDS011;42890;44.244;22.530;2024-03-17T13:39:21;7.03;;;6.43;;
56997;SDS011;42890;44.244;22.530;2024-03-17T13:41:49;8.35;;;5.85;;
56997;SDS011;42890;44.244;22.530;2024-03-17T13:44:18;6.40;;;5.90;;
56997;SDS011;42890;44.244;22.530;2024-03-17T13:46:44;6.05;;;5.50;;
56997;SDS011;42890;44.244;22.530;2024-03-17T13:49:10;5.05;;;4.65;;
56997;SDS011;42890;44.244;22.530;2024-03-17T13:51:36;4.05;;;3.75;;
56997;SDS011;42890;44.244;22.530;2024-03-17T13:54:02;4.85;;;4.45;;
56997;SDS011;42890;44.244;22.530;2024-03-17T13:56:28;5.22;;;4.20;;
56997;SDS011;42890;44.244;22.530;2024-03-17T13:58:56;5.50;;;4.55;;
56997;SDS011;42890;44.244;22.530;2024-03-17T14:01:23;4.30;;;4.00;;
56997;SDS011;42890;44.244;22.530;2024-03-17T14:03:49;4.97;;;3.97;;
56997;SDS011;42890;44.244;22.530;2024-03-17T14:06:15;6.22;;;4.28;;
56997;SDS011;42890;44.244;22.530;2024-03-17T14:08:41;5.18;;;4.68;;
56997;SDS011;42890;44.244;22.530;2024-03-17T14:11:07;4.50;;;4.13;;
56997;SDS011;42890;44.244;22.530;2024-03-17T14:13:33;4.72;;;4.32;;
56997;SDS011;42890;44.244;22.530;2024-03-17T14:15:59;5.65;;;4.15;;
56997;SDS011;42890;44.244;22.530;2024-03-17T14:18:26;9.95;;;8.95;;
56997;SDS011;42890;44.244;22.530;2024-03-17T14:20:52;29.30;;;26.70;;
56997;SDS011;42890;44.244;22.530;2024-03-17T14:23:19;5.93;;;4.78;;
56997;SDS011;42890;44.244;22.530;2024-03-17T14:25:46;9.18;;;5.97;;
56997;SDS011;42890;44.244;22.530;2024-03-17T14:28:12;3.78;;;3.47;;
56997;SDS011;42890;44.244;22.530;2024-03-17T14:30:38;3.40;;;3.10;;
56997;SDS011;42890;44.244;22.530;2024-03-17T14:33:04;3.33;;;2.90;;
56997;SDS011;42890;44.244;22.530;2024-03-17T14:35:33;5.22;;;4.25;;
56997;SDS011;42890;44.244;22.530;2024-03-17T14:37:59;10.27;;;8.95;;
56997;SDS011;42890;44.244;22.530;2024-03-17T14:40:25;21.90;;;17.63;;
56997;SDS011;42890;44.244;22.530;2024-03-17T14:42:54;7.82;;;5.78;;